Byromville, Georgia
Current Conditions -  °F | °C
As of 12:55 AM on Friday 28 Nov 2014 (Local Time) from KACJ Reporting Station
Clear Clear  
Wind Chill: -1°   Ceiling: Unl
Heat Index:   Visibility: 10mi
Dew Point: -1°   Wind: 7mph
Humidity: 81%   Direction: 340°NNW
Pressure: 30.4"   Gusts: NA
Location:  32.2°N, 83.91°W
Report Text: KACJ 280555Z AUTO 34006KT 10SM CLR 02/M01 A3040 RMK AO2
Loading
Personal Weather Stations






























Interactive Weather Map New forecast layout! Learn more

10-Day Weather Forecast

Advertisements
Track Severe Weather on mobile